Time;durP1;ratioP1;P1;durP2;ratioP2;P2;SDS_P1;SDS_P2;PMS_P1;PMS_P2;Temp;Humidity;BMP_temperature;BMP_pressure;BME280_temperature;BME280_humidity;BME280_pressure;Samples;Min_cycle;Max_cycle;Signal;HPM_P1;HPM_P2
2022/10/14 00:00:19;;;;;;;27.50;14.50;;;11.40;99.90;;;;;;9196532;19;19918;-73
2022/10/14 00:03:23;;;;;;;32.60;15.77;;;11.70;99.90;;;;;;9195492;19;19923;-74
2022/10/14 00:06:32;;;;;;;26.45;14.43;;;11.20;99.90;;;;;;9195262;19;19918;-74
2022/10/14 00:09:36;;;;;;;30.00;14.63;;;10.80;99.90;;;;;;9192855;19;20346;-74
2022/10/14 00:12:40;;;;;;;30.17;17.63;;;11.80;99.90;;;;;;9196809;19;19946;-74
2022/10/14 00:15:44;;;;;;;35.65;17.40;;;11.30;99.90;;;;;;9192101;19;19918;-74
2022/10/14 00:18:48;;;;;;;32.58;17.33;;;11.70;99.90;;;;;;9195930;19;19922;-75
2022/10/14 00:21:54;;;;;;;31.88;15.75;;;11.40;99.90;;;;;;9195744;19;19926;-76
2022/10/14 00:24:58;;;;;;;34.03;17.15;;;11.70;99.90;;;;;;9193526;19;19956;-75
2022/10/14 00:28:02;;;;;;;33.28;17.55;;;11.40;99.90;;;;;;9190516;19;20010;-75
2022/10/14 00:31:06;;;;;;;34.78;17.58;;;11.20;99.90;;;;;;9195642;19;20449;-75
2022/10/14 00:34:11;;;;;;;33.85;15.80;;;11.00;99.90;;;;;;9193559;19;19937;-76
2022/10/14 00:37:18;;;;;;;30.00;15.45;;;11.60;99.90;;;;;;9194259;19;19933;-75
2022/10/14 00:40:22;;;;;;;33.92;16.70;;;11.10;99.90;;;;;;9194824;19;19910;-75
2022/10/14 00:43:30;;;;;;;31.38;16.77;;;11.50;99.90;;;;;;9197272;19;19925;-75
2022/10/14 00:46:35;;;;;;;36.30;18.10;;;11.70;99.90;;;;;;9192063;19;19919;-75
2022/10/14 00:49:41;;;;;;;;;;;11.40;99.90;;;;;;9195473;19;19918;-76
2022/10/14 00:52:49;;;;;;;37.40;17.38;;;11.10;99.90;;;;;;9195909;19;20332;-75
2022/10/14 00:55:53;;;;;;;43.72;17.35;;;;;;;;;;9193560;19;19978;-75
2022/10/14 00:58:57;;;;;;;40.45;17.83;;;10.90;99.90;;;;;;9195944;19;20251;-75
2022/10/14 01:02:02;;;;;;;49.00;19.00;;;11.50;99.90;;;;;;9192159;19;20318;-75
2022/10/14 01:05:08;;;;;;;36.78;17.63;;;12.00;99.90;;;;;;9192001;19;19918;-75
2022/10/14 01:08:24;;;;;;;37.95;19.88;;;11.60;99.90;;;;;;9190918;19;19919;-75
2022/10/14 01:11:36;;;;;;;54.88;17.50;;;11.20;99.90;;;;;;9195149;19;19922;-75
2022/10/14 01:14:53;;;;;;;50.15;17.65;;;11.60;99.90;;;;;;9193482;19;19919;-75
2022/10/14 01:18:11;;;;;;;40.70;18.60;;;11.50;99.90;;;;;;9193172;19;19926;-75
2022/10/14 01:21:21;;;;;;;61.72;18.48;;;11.00;99.90;;;;;;9190948;19;19952;-75
2022/10/14 01:24:53;;;;;;;71.88;18.63;;;11.30;99.90;;;;;;9195431;19;19914;-75
2022/10/14 01:28:12;;;;;;;83.82;18.17;;;11.00;99.90;;;;;;9189571;19;19950;-75
2022/10/14 01:31:22;;;;;;;131.60;19.73;;;10.80;99.90;;;;;;9189868;19;19915;-75
2022/10/14 01:34:34;;;;;;;51.58;18.17;;;10.90;99.90;;;;;;9193174;19;20380;-75
2022/10/14 01:37:42;;;;;;;75.47;16.95;;;11.30;99.90;;;;;;9194911;19;19921;-75
2022/10/14 01:40:58;;;;;;;100.38;18.38;;;11.50;99.90;;;;;;9190607;19;20372;-75
2022/10/14 01:44:06;;;;;;;86.40;16.52;;;10.90;99.90;;;;;;9193344;19;19923;-75
2022/10/14 01:47:15;;;;;;;56.33;15.45;;;10.80;99.90;;;;;;9191380;19;19978;-75
2022/10/14 01:50:21;;;;;;;117.28;14.98;;;11.30;99.90;;;;;;9193976;19;20462;-75
2022/10/14 01:53:28;;;;;;;125.95;15.52;;;11.50;99.90;;;;;;9190130;19;19932;-75
2022/10/14 01:56:34;;;;;;;219.38;18.60;;;11.50;99.90;;;;;;9190003;19;19938;-75
2022/10/14 01:59:40;;;;;;;113.82;15.27;;;10.90;99.90;;;;;;9191109;19;19929;-75
2022/10/14 02:02:47;;;;;;;99.57;14.63;;;10.70;99.90;;;;;;9195559;19;20255;-75
2022/10/14 02:05:56;;;;;;;71.05;14.35;;;10.90;99.90;;;;;;9199563;19;19926;-75
2022/10/14 02:09:08;;;;;;;60.90;14.43;;;11.10;99.90;;;;;;9195712;19;19948;-75
2022/10/14 02:12:22;;;;;;;52.22;13.38;;;10.90;99.90;;;;;;9196527;19;20558;-75
2022/10/14 02:15:33;;;;;;;67.50;13.93;;;10.90;99.90;;;;;;9197772;19;19914;-75
2022/10/14 02:18:46;;;;;;;137.82;17.27;;;10.80;99.90;;;;;;9198089;19;19922;-75
2022/10/14 02:21:55;;;;;;;86.10;15.25;;;11.30;99.90;;;;;;9198892;19;19927;-75
2022/10/14 02:25:02;;;;;;;116.30;15.27;;;10.90;99.90;;;;;;9171489;19;20419;-74
2022/10/14 02:28:09;;;;;;;85.50;13.30;;;11.10;99.90;;;;;;9167107;19;19926;-74
2022/10/14 02:31:17;;;;;;;84.35;14.27;;;11.70;99.90;;;;;;8981109;19;108803;-75
2022/10/14 02:34:26;;;;;;;169.52;16.08;;;10.70;99.90;;;;;;9122668;19;19998;-74
2022/10/14 02:37:31;;;;;;;150.82;15.40;;;10.60;99.90;;;;;;9200818;19;20459;-74
2022/10/14 02:40:40;;;;;;;111.32;12.80;;;10.60;99.90;;;;;;9199963;19;19930;-75
2022/10/14 02:43:46;;;;;;;107.97;14.10;;;10.80;99.90;;;;;;9196397;19;19922;-74
2022/10/14 02:46:50;;;;;;;83.00;14.43;;;11.10;99.90;;;;;;9197004;19;19914;-75
2022/10/14 02:49:57;;;;;;;163.98;16.95;;;10.50;99.90;;;;;;9197782;19;19981;-75
2022/10/14 02:53:01;;;;;;;84.35;13.25;;;10.80;99.90;;;;;;9195296;19;19923;-75
2022/10/14 02:56:05;;;;;;;66.85;13.63;;;10.70;99.90;;;;;;9197558;19;19919;-75
2022/10/14 02:59:09;;;;;;;89.20;14.15;;;10.20;99.90;;;;;;9196533;19;19933;-75
2022/10/14 03:02:13;;;;;;;72.53;12.32;;;;;;;;;;9197202;19;19944;-75
2022/10/14 03:05:21;;;;;;;49.38;11.05;;;10.80;99.90;;;;;;9199088;19;19923;-75
2022/10/14 03:08:25;;;;;;;80.03;11.50;;;10.90;99.90;;;;;;9191109;19;19918;-75
2022/10/14 03:11:29;;;;;;;81.55;10.98;;;10.60;99.90;;;;;;9197455;19;20279;-75
2022/10/14 03:14:33;;;;;;;58.95;10.25;;;10.00;99.90;;;;;;9194399;19;20270;-75
2022/10/14 03:17:38;;;;;;;81.00;10.45;;;10.40;99.90;;;;;;9194478;19;19926;-75
2022/10/14 03:20:45;;;;;;;72.43;11.55;;;10.40;99.90;;;;;;9195881;19;19919;-75
2022/10/14 03:23:49;;;;;;;69.45;10.73;;;10.20;99.90;;;;;;9197765;19;19953;-75
2022/10/14 03:26:53;;;;;;;77.78;10.85;;;10.50;99.90;;;;;;9198720;19;20025;-75
2022/10/14 03:29:57;;;;;;;39.88;9.45;;;;;;;;;;9193792;19;19974;-75
2022/10/14 03:33:01;;;;;;;89.90;9.40;;;10.60;99.90;;;;;;9187204;19;19925;-75
2022/10/14 03:36:08;;;;;;;62.78;9.88;;;10.50;99.90;;;;;;9196327;19;19919;-75
2022/10/14 03:39:12;;;;;;;72.53;10.52;;;10.60;99.90;;;;;;9192960;19;19965;-75
2022/10/14 03:42:16;;;;;;;74.22;9.60;;;10.50;99.90;;;;;;9198528;19;19910;-75
2022/10/14 03:45:20;;;;;;;79.68;9.68;;;10.50;99.90;;;;;;9195118;19;19936;-75
2022/10/14 03:48:24;;;;;;;66.72;8.27;;;10.20;99.90;;;;;;9197852;19;20360;-75
2022/10/14 03:51:31;;;;;;;67.25;8.85;;;10.00;99.90;;;;;;9198209;19;19926;-75
2022/10/14 03:54:35;;;;;;;77.53;8.35;;;10.80;99.90;;;;;;9193982;19;19939;-75
2022/10/14 03:57:39;;;;;;;55.83;9.15;;;10.70;99.90;;;;;;9196134;19;19995;-75
2022/10/14 04:00:43;;;;;;;92.80;9.88;;;10.60;99.90;;;;;;9196093;19;19914;-75
2022/10/14 04:03:49;;;;;;;90.80;9.73;;;9.80;99.90;;;;;;9194767;19;20356;-75
2022/10/14 04:06:57;;;;;;;64.40;8.75;;;10.00;99.90;;;;;;9195134;19;19954;-75
2022/10/14 04:10:01;;;;;;;58.85;8.07;;;9.40;99.90;;;;;;9190666;19;19951;-75
2022/10/14 04:13:05;;;;;;;32.25;7.07;;;9.70;99.90;;;;;;9191928;19;20337;-75
2022/10/14 04:16:10;;;;;;;52.20;7.05;;;9.70;99.90;;;;;;9189816;19;19923;-75
2022/10/14 04:19:14;;;;;;;61.22;5.82;;;10.30;99.90;;;;;;9195067;19;20373;-75
2022/10/14 04:22:22;;;;;;;53.00;6.65;;;9.90;99.90;;;;;;9195213;19;20272;-75
2022/10/14 04:25:26;;;;;;;40.28;6.18;;;10.20;99.90;;;;;;9191638;19;19956;-74
2022/10/14 04:28:29;;;;;;;61.80;7.07;;;9.50;99.90;;;;;;9195245;19;19922;-75
2022/10/14 04:31:33;;;;;;;62.88;7.70;;;9.60;99.90;;;;;;9194107;19;19940;-74
2022/10/14 04:34:37;;;;;;;15.07;5.45;;;9.90;99.90;;;;;;9192417;19;19993;-74
2022/10/14 04:37:44;;;;;;;40.20;5.60;;;9.70;99.90;;;;;;9192618;19;19918;-75
2022/10/14 04:40:47;;;;;;;;;;;9.10;99.90;;;;;;9199201;19;19929;-75
2022/10/14 04:43:51;;;;;;;32.42;6.93;;;10.10;99.90;;;;;;9194098;19;19918;-75
2022/10/14 04:46:55;;;;;;;30.83;7.53;;;9.30;99.90;;;;;;9195596;19;19929;-75
2022/10/14 04:49:59;;;;;;;32.85;7.45;;;10.10;99.90;;;;;;9190695;19;19923;-75
2022/10/14 04:53:05;;;;;;;34.72;7.50;;;9.60;99.90;;;;;;9194825;19;20366;-74
2022/10/14 04:56:09;;;;;;;;;;;9.90;99.90;;;;;;9195576;19;19982;-75
2022/10/14 04:59:14;;;;;;;35.15;6.15;;;10.50;99.90;;;;;;9193304;19;19933;-75
2022/10/14 05:02:18;;;;;;;28.42;6.50;;;9.30;99.90;;;;;;9194659;19;19926;-74
2022/10/14 05:05:21;;;;;;;35.65;6.20;;;10.10;99.90;;;;;;9192290;19;19987;-74
2022/10/14 05:08:29;;;;;;;33.05;5.47;;;9.90;99.90;;;;;;9191975;19;19926;-74
2022/10/14 05:11:32;;;;;;;;;;;9.90;99.90;;;;;;9196713;19;19986;-74
2022/10/14 05:14:37;;;;;;;24.67;5.85;;;9.80;99.90;;;;;;9187605;19;20328;-75
2022/10/14 05:17:43;;;;;;;35.05;6.63;;;9.70;99.90;;;;;;9193149;19;20337;-75
2022/10/14 05:20:47;;;;;;;13.98;6.15;;;9.80;99.90;;;;;;9192389;19;19927;-75
2022/10/14 05:23:54;;;;;;;25.27;6.53;;;9.80;99.90;;;;;;9191711;19;20341;-75
2022/10/14 05:26:58;;;;;;;23.40;6.40;;;;;;;;;;9193531;19;20333;-75
2022/10/14 05:30:02;;;;;;;15.45;6.68;;;9.40;99.90;;;;;;9189914;19;19928;-75
2022/10/14 05:33:06;;;;;;;24.73;6.85;;;10.00;99.90;;;;;;9191558;19;19922;-74
2022/10/14 05:36:10;;;;;;;25.00;6.88;;;10.20;99.90;;;;;;9192230;19;20264;-74
2022/10/14 05:39:17;;;;;;;16.73;6.72;;;10.20;99.90;;;;;;9193683;19;19915;-74
2022/10/14 05:42:21;;;;;;;20.13;6.28;;;10.00;99.90;;;;;;9197982;19;19933;-74
2022/10/14 05:45:25;;;;;;;30.05;7.13;;;;;;;;;;9202482;19;20339;-74
2022/10/14 05:48:30;;;;;;;19.98;6.57;;;9.60;99.90;;;;;;9199781;19;19953;-75
2022/10/14 05:51:34;;;;;;;15.10;6.43;;;10.00;99.90;;;;;;9198199;19;19918;-73
2022/10/14 05:54:40;;;;;;;28.33;6.18;;;10.00;99.90;;;;;;9198994;19;19982;-74
2022/10/14 05:57:44;;;;;;;19.48;6.25;;;9.30;99.90;;;;;;9203644;19;19939;-73
2022/10/14 06:00:48;;;;;;;22.75;6.78;;;;;;;;;;9197220;19;19926;-74
2022/10/14 06:03:53;;;;;;;25.52;6.47;;;9.30;99.90;;;;;;9202170;19;19922;-75
2022/10/14 06:06:57;;;;;;;22.38;7.75;;;;;;;;;;9197211;19;19918;-74
2022/10/14 06:10:04;;;;;;;22.92;8.40;;;9.70;99.90;;;;;;9193889;19;19924;-74
2022/10/14 06:13:09;;;;;;;23.25;8.85;;;;;;;;;;9197399;19;19918;-75
2022/10/14 06:16:13;;;;;;;22.50;9.27;;;9.40;99.90;;;;;;9194578;19;20275;-74
2022/10/14 06:19:17;;;;;;;21.85;8.88;;;;;;;;;;9195542;19;19957;-75
2022/10/14 06:22:21;;;;;;;28.13;9.65;;;;;;;;;;9198585;19;19974;-74
2022/10/14 06:25:28;;;;;;;25.60;10.40;;;10.20;99.90;;;;;;9197519;19;19927;-75
2022/10/14 06:28:32;;;;;;;26.13;10.15;;;10.60;99.90;;;;;;9198059;19;19925;-75
2022/10/14 06:31:36;;;;;;;21.98;8.63;;;;;;;;;;9198605;19;19992;-75
2022/10/14 06:34:40;;;;;;;22.27;10.48;;;9.90;99.90;;;;;;9196713;19;20374;-75
2022/10/14 06:37:47;;;;;;;28.15;9.60;;;10.70;99.90;;;;;;9196265;19;19935;-76
2022/10/14 06:40:55;;;;;;;25.73;10.20;;;9.70;99.90;;;;;;9194657;19;19921;-75
2022/10/14 06:43:59;;;;;;;25.40;10.65;;;10.10;99.90;;;;;;9196676;19;19982;-76
2022/10/14 06:47:03;;;;;;;24.83;9.75;;;9.90;99.90;;;;;;9195693;19;19922;-76
2022/10/14 06:50:07;;;;;;;22.58;9.95;;;10.00;99.90;;;;;;9195677;19;19919;-75
2022/10/14 06:53:11;;;;;;;22.70;9.63;;;10.10;99.90;;;;;;9194546;19;19926;-76
2022/10/14 06:56:18;;;;;;;25.38;9.98;;;10.70;99.90;;;;;;9195806;19;19926;-76
2022/10/14 06:59:22;;;;;;;25.55;10.82;;;10.30;99.90;;;;;;9197788;19;19926;-74
2022/10/14 07:02:27;;;;;;;24.17;9.73;;;10.10;99.90;;;;;;9198161;19;19998;-75
2022/10/14 07:05:31;;;;;;;27.25;10.65;;;10.60;99.90;;;;;;9196694;19;20388;-75
2022/10/14 07:08:35;;;;;;;23.23;10.20;;;;;;;;;;9198221;19;19922;-75
2022/10/14 07:11:44;;;;;;;28.30;9.82;;;11.30;99.90;;;;;;9189973;19;19970;-76
2022/10/14 07:14:48;;;;;;;25.55;10.18;;;10.60;99.90;;;;;;9198483;19;20321;-73
2022/10/14 07:17:51;;;;;;;25.42;10.30;;;11.30;99.90;;;;;;9195431;19;19946;-75
2022/10/14 07:20:55;;;;;;;19.80;10.57;;;10.30;99.90;;;;;;9195957;19;19957;-75
2022/10/14 07:23:59;;;;;;;20.70;10.00;;;;;;;;;;9193032;19;19951;-74
2022/10/14 07:27:06;;;;;;;24.08;10.50;;;10.60;99.90;;;;;;9198178;19;20263;-75
2022/10/14 07:30:11;;;;;;;20.50;8.82;;;10.90;99.90;;;;;;9196494;19;19926;-75
2022/10/14 07:33:15;;;;;;;19.95;10.27;;;11.40;99.90;;;;;;9195434;19;20045;-75
2022/10/14 07:36:20;;;;;;;22.75;10.30;;;11.00;99.90;;;;;;9197710;19;19919;-75
2022/10/14 07:39:24;;;;;;;22.77;10.80;;;10.50;99.90;;;;;;9194959;19;19922;-75
2022/10/14 07:42:31;;;;;;;25.58;11.23;;;10.90;99.90;;;;;;9194275;19;19919;-75
2022/10/14 07:45:36;;;;;;;24.20;10.80;;;10.40;99.90;;;;;;9194144;19;19918;-76
2022/10/14 07:48:41;;;;;;;23.73;9.82;;;11.30;99.90;;;;;;9196842;19;19919;-75
2022/10/14 07:51:46;;;;;;;23.65;10.85;;;10.90;99.90;;;;;;9192752;19;20023;-75
2022/10/14 07:54:50;;;;;;;22.85;10.57;;;10.30;99.90;;;;;;9195420;19;19927;-75
2022/10/14 07:57:56;;;;;;;20.58;10.27;;;10.70;99.90;;;;;;9192418;19;19930;-75
2022/10/14 08:01:00;;;;;;;23.30;11.25;;;10.30;99.90;;;;;;9191863;19;19926;-75
2022/10/14 08:04:05;;;;;;;23.15;11.15;;;10.80;99.90;;;;;;9193639;19;20317;-75
2022/10/14 08:07:08;;;;;;;22.02;10.80;;;10.50;99.90;;;;;;9195298;19;19922;-73
2022/10/14 08:10:12;;;;;;;20.50;10.55;;;11.30;99.90;;;;;;9192539;19;20252;-74
2022/10/14 08:13:19;;;;;;;23.50;11.02;;;10.40;99.90;;;;;;9191790;19;19918;-75
2022/10/14 08:16:25;;;;;;;;;;;10.80;99.90;;;;;;9195772;19;19919;-75
2022/10/14 08:19:29;;;;;;;22.20;10.75;;;11.60;99.90;;;;;;9194525;19;19970;-75
2022/10/14 08:22:33;;;;;;;16.23;9.48;;;11.20;99.90;;;;;;9193807;19;19926;-75
2022/10/14 08:25:38;;;;;;;20.42;9.38;;;11.10;99.90;;;;;;9194472;19;19953;-76
2022/10/14 08:28:45;;;;;;;18.70;9.82;;;11.00;99.90;;;;;;9194220;19;20315;-75
2022/10/14 08:31:48;;;;;;;;;;;10.70;99.90;;;;;;9192197;19;19914;-74
2022/10/14 08:34:54;;;;;;;19.65;9.38;;;11.40;99.90;;;;;;9193477;19;20352;-75
2022/10/14 08:37:59;;;;;;;16.75;9.57;;;11.10;99.90;;;;;;9193308;19;19926;-74
2022/10/14 08:41:09;;;;;;;16.25;8.85;;;10.90;99.90;;;;;;9194161;19;20352;-74
2022/10/14 08:44:21;;;;;;;17.55;9.32;;;11.30;99.90;;;;;;9193336;19;19919;-74
2022/10/14 08:47:32;;;;;;;18.77;8.95;;;11.50;99.90;;;;;;9190591;19;19929;-75
2022/10/14 08:50:45;;;;;;;15.98;7.78;;;11.50;99.90;;;;;;9192291;19;19914;-75
2022/10/14 08:53:54;;;;;;;16.63;7.70;;;11.20;99.90;;;;;;9191987;19;20337;-75
2022/10/14 08:57:00;;;;;;;16.90;8.00;;;11.20;99.90;;;;;;9194376;19;19923;-75
2022/10/14 09:00:08;;;;;;;16.98;8.40;;;11.20;99.90;;;;;;9193201;19;19926;-74
2022/10/14 09:03:22;;;;;;;16.95;8.23;;;11.60;99.90;;;;;;9189749;19;20363;-74
2022/10/14 09:06:29;;;;;;;15.82;8.77;;;11.70;99.90;;;;;;9192716;19;19926;-74
2022/10/14 09:09:40;;;;;;;16.75;7.63;;;12.40;99.90;;;;;;9192191;19;19990;-75
2022/10/14 09:12:44;;;;;;;18.67;8.85;;;11.50;99.90;;;;;;9195265;19;19922;-75
2022/10/14 09:15:58;;;;;;;18.02;7.85;;;12.10;99.90;;;;;;9197141;19;19961;-75
2022/10/14 09:19:04;;;;;;;19.30;9.55;;;11.60;99.90;;;;;;9198780;19;19986;-75
2022/10/14 09:22:14;;;;;;;21.10;9.23;;;12.20;99.90;;;;;;9201165;19;19946;-75
2022/10/14 09:25:19;;;;;;;18.50;9.60;;;11.90;99.90;;;;;;9198472;19;19926;-75
2022/10/14 09:28:34;;;;;;;18.45;9.57;;;12.20;99.90;;;;;;9199598;19;19926;-75
2022/10/14 09:31:41;;;;;;;19.02;9.55;;;12.30;99.90;;;;;;9196971;19;19918;-75
2022/10/14 09:34:49;;;;;;;20.13;9.35;;;12.40;99.90;;;;;;9160570;19;19921;-75
2022/10/14 09:37:54;;;;;;;20.33;10.15;;;12.20;99.90;;;;;;9175833;19;19923;-74
2022/10/14 09:41:01;;;;;;;18.48;9.20;;;12.80;99.90;;;;;;9203760;19;19933;-75
2022/10/14 09:44:21;;;;;;;18.25;9.88;;;12.90;99.90;;;;;;9195859;19;20303;-76
2022/10/14 09:47:28;;;;;;;31.55;14.77;;;12.70;99.90;;;;;;9200064;19;19945;-75
2022/10/14 09:50:36;;;;;;;20.48;10.68;;;13.00;99.90;;;;;;9197061;19;20049;-75
2022/10/14 09:53:46;;;;;;;19.90;11.05;;;12.90;99.90;;;;;;9195693;19;20313;-75
2022/10/14 09:56:50;;;;;;;18.70;9.80;;;;;;;;;;9199732;19;19922;-76
2022/10/14 09:59:59;;;;;;;18.45;9.27;;;12.70;99.90;;;;;;9199777;19;19922;-76
2022/10/14 10:03:06;;;;;;;19.42;11.10;;;12.50;99.90;;;;;;9199454;19;19989;-75
2022/10/14 10:06:13;;;;;;;19.55;9.63;;;12.70;99.90;;;;;;9191712;19;20345;-76
2022/10/14 10:09:21;;;;;;;18.92;9.43;;;13.00;99.90;;;;;;9198761;19;19924;-76
2022/10/14 10:12:26;;;;;;;17.80;9.90;;;12.80;99.90;;;;;;9196870;19;19911;-76
2022/10/14 10:15:31;;;;;;;21.73;11.10;;;;;;;;;;9194536;19;19918;-76
2022/10/14 10:18:38;;;;;;;23.63;10.35;;;12.80;99.90;;;;;;9195063;19;19915;-76
2022/10/14 10:21:42;;;;;;;21.52;10.43;;;12.80;99.90;;;;;;9196758;19;20345;-73
2022/10/14 10:24:46;;;;;;;22.35;10.20;;;12.70;99.90;;;;;;9199589;19;19926;-72
2022/10/14 10:27:51;;;;;;;20.70;11.38;;;13.00;99.90;;;;;;9196482;19;19926;-71
2022/10/14 10:31:08;;;;;;;23.92;11.13;;;12.20;99.90;;;;;;9196926;19;19978;-73
2022/10/14 10:34:38;;;;;;;21.88;10.93;;;12.70;99.90;;;;;;9200973;19;20002;-74
2022/10/14 10:37:55;;;;;;;21.67;10.90;;;13.00;99.90;;;;;;9198743;19;19943;-77
2022/10/14 10:41:17;;;;;;;22.80;11.52;;;12.70;99.90;;;;;;9197625;19;19925;-80
2022/10/14 10:44:39;;;;;;;23.25;12.25;;;13.10;99.90;;;;;;9196722;19;19921;-79
2022/10/14 10:47:49;;;;;;;25.25;11.88;;;12.50;99.90;;;;;;9198982;19;19941;-77
2022/10/14 10:51:01;;;;;;;26.63;12.82;;;13.00;99.90;;;;;;9197337;19;19923;-78
2022/10/14 10:54:15;;;;;;;27.00;14.02;;;12.30;99.90;;;;;;9192906;19;19934;-78
2022/10/14 10:57:33;;;;;;;29.60;13.18;;;12.70;99.90;;;;;;9200161;19;20312;-73
2022/10/14 11:00:46;;;;;;;25.45;12.88;;;12.80;99.90;;;;;;9195298;19;20252;-71
2022/10/14 11:04:06;;;;;;;29.48;13.15;;;12.40;99.90;;;;;;9197870;19;19986;-71
2022/10/14 11:14:07;;;;;;;29.52;13.63;;;12.70;99.90;;;;;;9195366;19;19936;-71
2022/10/14 11:17:22;;;;;;;27.33;13.10;;;12.90;99.90;;;;;;9196109;19;20337;-76
2022/10/14 11:20:35;;;;;;;30.70;12.60;;;11.10;99.90;;;;;;9191281;19;19949;-77
2022/10/14 11:23:58;;;;;;;29.98;12.77;;;12.40;99.90;;;;;;9198823;19;19927;-77
2022/10/14 11:27:11;;;;;;;26.17;13.50;;;12.50;99.90;;;;;;9194846;19;19928;-77
2022/10/14 11:30:20;;;;;;;26.75;12.95;;;12.40;99.90;;;;;;9197156;19;19918;-78
2022/10/14 11:33:43;;;;;;;32.40;12.93;;;12.80;99.90;;;;;;9197493;19;19918;-76
2022/10/14 11:36:55;;;;;;;24.00;11.80;;;13.00;99.90;;;;;;9193052;19;19926;-76
2022/10/14 11:40:08;;;;;;;29.65;12.20;;;12.20;99.90;;;;;;9195833;19;19980;-76
2022/10/14 11:43:23;;;;;;;27.08;12.27;;;12.30;99.90;;;;;;9191733;19;19922;-77
2022/10/14 11:46:32;;;;;;;27.48;12.35;;;12.50;99.90;;;;;;9196852;19;19914;-76
2022/10/14 11:49:42;;;;;;;32.40;14.38;;;12.60;99.90;;;;;;9195124;19;20249;-75
2022/10/14 11:56:57;;;;;;;29.90;13.77;;;12.60;99.90;;;;;;9185059;19;20451;-73
2022/10/14 12:00:04;;;;;;;29.92;13.98;;;12.30;99.90;;;;;;9191641;19;19930;-74
2022/10/14 12:03:14;;;;;;;31.00;13.52;;;12.40;99.90;;;;;;9199957;19;19922;-74
2022/10/14 12:06:20;;;;;;;31.35;14.55;;;12.60;99.90;;;;;;9196463;19;19919;-74
2022/10/14 12:09:30;;;;;;;32.40;15.10;;;12.50;99.90;;;;;;9195424;19;19920;-74
2022/10/14 12:12:38;;;;;;;29.77;14.95;;;12.80;99.90;;;;;;9194992;19;19919;-74
2022/10/14 12:15:48;;;;;;;31.88;14.45;;;12.40;99.90;;;;;;9192099;19;19948;-74
2022/10/14 12:18:55;;;;;;;30.95;13.23;;;12.60;99.90;;;;;;9198733;19;19915;-74
2022/10/14 12:22:06;;;;;;;26.17;14.65;;;12.40;99.90;;;;;;9192968;19;19965;-73
2022/10/14 12:25:16;;;;;;;29.13;15.07;;;12.70;99.90;;;;;;9194342;19;19918;-74
2022/10/14 12:28:23;;;;;;;26.63;13.55;;;13.10;99.90;;;;;;9196888;19;19919;-74
2022/10/14 12:31:39;;;;;;;24.88;13.32;;;12.20;99.90;;;;;;9191920;19;20066;-74
2022/10/14 12:34:45;;;;;;;23.67;12.05;;;12.60;99.90;;;;;;9192677;19;19918;-74
2022/10/14 12:37:55;;;;;;;25.60;12.68;;;12.50;99.90;;;;;;9187124;19;20050;-75
2022/10/14 12:41:30;;;;;;;27.25;13.13;;;13.30;99.90;;;;;;9191569;19;19929;-74
2022/10/14 12:44:47;;;;;;;26.08;13.00;;;12.70;99.90;;;;;;9194153;19;19922;-73
2022/10/14 12:48:08;;;;;;;28.63;14.65;;;12.60;99.90;;;;;;9181729;19;19929;-73
2022/10/14 12:51:15;;;;;;;29.75;13.00;;;12.50;99.90;;;;;;9188033;19;20247;-72
2022/10/14 12:54:19;;;;;;;26.23;13.07;;;;;;;;;;9187332;19;19991;-73
2022/10/14 12:57:30;;;;;;;28.05;14.07;;;13.30;99.90;;;;;;9189202;19;19925;-74
2022/10/14 13:00:40;;;;;;;27.40;13.05;;;13.40;99.90;;;;;;9188171;19;19915;-74
2022/10/14 13:03:48;;;;;;;31.85;16.40;;;13.20;99.90;;;;;;9187954;19;19926;-73
2022/10/14 13:07:30;;;;;;;30.77;16.20;;;13.50;99.90;;;;;;9193860;19;19922;-73
2022/10/14 13:11:10;;;;;;;28.75;15.50;;;13.20;99.90;;;;;;9194048;19;19917;-74
2022/10/14 13:14:25;;;;;;;31.95;15.93;;;13.10;99.90;;;;;;9190270;19;19921;-76
2022/10/14 13:17:45;;;;;;;36.30;17.13;;;13.20;99.90;;;;;;9189653;19;19926;-76
2022/10/14 13:20:54;;;;;;;37.53;16.98;;;13.10;99.90;;;;;;9191286;19;19914;-76
2022/10/14 13:24:01;;;;;;;36.38;16.90;;;13.70;99.90;;;;;;9187427;19;19923;-76
2022/10/14 13:27:15;;;;;;;35.53;17.35;;;13.20;99.90;;;;;;9189044;19;19935;-76
2022/10/14 13:30:25;;;;;;;36.53;18.35;;;13.50;99.90;;;;;;9195778;19;19918;-76
2022/10/14 13:33:38;;;;;;;35.63;17.77;;;13.30;99.90;;;;;;9187352;19;19915;-73
2022/10/14 13:36:52;;;;;;;36.10;17.40;;;12.80;99.90;;;;;;9188704;19;19926;-76
2022/10/14 13:39:57;;;;;;;35.33;19.20;;;13.50;99.90;;;;;;9181328;19;20275;-76
2022/10/14 13:43:03;;;;;;;41.55;18.27;;;13.50;99.90;;;;;;9190679;19;20355;-76
2022/10/14 13:46:10;;;;;;;38.42;20.65;;;13.40;99.90;;;;;;9194917;19;19937;-77
2022/10/14 13:49:21;;;;;;;37.83;19.65;;;13.00;99.90;;;;;;9186220;19;19914;-76
2022/10/14 13:52:27;;;;;;;40.55;19.63;;;13.20;99.90;;;;;;9187986;19;19919;-75
2022/10/14 13:55:31;;;;;;;36.95;19.15;;;;;;;;;;9185895;19;19919;-75
2022/10/14 13:58:36;;;;;;;39.28;18.73;;;;;;;;;;9190786;19;19923;-75
2022/10/14 14:01:41;;;;;;;38.78;19.50;;;13.50;99.90;;;;;;9197646;19;19949;-75
2022/10/14 14:04:55;;;;;;;34.95;18.90;;;13.90;99.90;;;;;;9195897;19;20257;-76
2022/10/14 14:08:00;;;;;;;39.67;18.35;;;13.30;99.90;;;;;;9197165;19;19914;-75
2022/10/14 14:11:06;;;;;;;36.88;20.02;;;13.80;99.90;;;;;;9196617;19;19915;-75
2022/10/14 14:14:18;;;;;;;39.95;19.75;;;13.00;99.90;;;;;;9196730;19;19918;-74
2022/10/14 14:17:26;;;;;;;39.45;19.00;;;14.10;99.90;;;;;;9197533;19;19917;-75
2022/10/14 14:20:34;;;;;;;36.00;19.58;;;14.20;99.90;;;;;;9196716;19;20296;-75
2022/10/14 14:23:37;;;;;;;40.38;19.58;;;13.20;99.90;;;;;;9196603;19;19925;-75
2022/10/14 14:26:42;;;;;;;36.78;19.30;;;13.70;99.90;;;;;;9196232;19;19982;-76
2022/10/14 14:29:48;;;;;;;38.90;20.55;;;13.90;99.90;;;;;;9201260;19;19925;-75
2022/10/14 14:32:51;;;;;;;39.58;21.10;;;13.00;99.90;;;;;;9194897;19;19919;-76
2022/10/14 14:36:01;;;;;;;35.15;17.42;;;13.40;99.90;;;;;;9196729;19;20418;-76
2022/10/14 14:39:05;;;;;;;40.72;17.55;;;13.40;99.90;;;;;;9196442;19;19966;-75
2022/10/14 14:42:11;;;;;;;35.70;18.33;;;13.90;99.90;;;;;;9196452;19;19930;-76
2022/10/14 14:45:19;;;;;;;39.08;19.30;;;14.00;99.90;;;;;;9196455;19;19958;-75
2022/10/14 14:48:23;;;;;;;35.13;18.60;;;13.50;99.90;;;;;;9196024;19;19922;-75
2022/10/14 14:51:34;;;;;;;35.15;17.88;;;12.80;99.90;;;;;;9195243;19;19925;-76
2022/10/14 14:54:46;;;;;;;38.17;18.38;;;13.10;99.90;;;;;;9193785;19;19918;-76
2022/10/14 14:57:58;;;;;;;35.75;18.30;;;13.90;99.90;;;;;;9198748;19;20309;-75
2022/10/14 15:01:02;;;;;;;35.90;18.45;;;13.80;99.90;;;;;;9195444;19;19917;-75
2022/10/14 15:04:09;;;;;;;32.97;17.85;;;13.80;99.90;;;;;;9195506;19;20370;-74
2022/10/14 15:07:20;;;;;;;34.00;17.85;;;13.00;99.90;;;;;;9195192;19;19922;-76
2022/10/14 15:10:27;;;;;;;33.83;16.42;;;13.50;99.90;;;;;;9194281;19;19918;-75
2022/10/14 15:13:43;;;;;;;37.08;18.85;;;14.20;99.90;;;;;;9192787;19;19914;-76
2022/10/14 15:16:54;;;;;;;30.58;16.90;;;13.50;99.90;;;;;;9192642;19;19934;-76
2022/10/14 15:20:00;;;;;;;32.55;18.15;;;13.80;99.90;;;;;;9194965;19;19914;-76
2022/10/14 15:23:38;;;;;;;30.83;16.92;;;13.60;99.90;;;;;;9194789;19;20277;-75
2022/10/14 15:26:45;;;;;;;29.95;16.58;;;13.90;99.90;;;;;;9195840;19;20387;-76
2022/10/14 15:30:18;;;;;;;33.17;16.38;;;14.00;99.90;;;;;;9194573;19;19977;-75
2022/10/14 15:33:24;;;;;;;32.13;16.58;;;13.80;99.90;;;;;;9193259;19;19919;-74
2022/10/14 15:36:29;;;;;;;32.20;17.17;;;13.00;99.90;;;;;;9194300;19;20334;-75
2022/10/14 15:39:35;;;;;;;31.63;16.92;;;13.50;99.90;;;;;;9194669;19;20283;-75
2022/10/14 15:42:39;;;;;;;29.52;16.00;;;12.80;99.90;;;;;;9194124;19;19981;-76
2022/10/14 15:45:45;;;;;;;25.58;14.70;;;13.90;99.90;;;;;;9194412;19;20367;-76
2022/10/14 15:48:51;;;;;;;27.45;15.55;;;13.40;99.90;;;;;;9193825;19;19925;-74
2022/10/14 15:51:55;;;;;;;28.05;15.25;;;13.30;99.90;;;;;;9193456;19;20253;-75
2022/10/14 15:55:02;;;;;;;27.55;14.82;;;13.60;99.90;;;;;;9191767;19;19914;-75
2022/10/14 15:58:06;;;;;;;25.65;14.07;;;13.70;99.90;;;;;;9198620;19;19919;-75
2022/10/14 16:01:16;;;;;;;24.80;14.20;;;14.00;99.90;;;;;;9193393;19;19929;-75
2022/10/14 16:04:23;;;;;;;28.08;15.38;;;12.90;99.90;;;;;;9193666;19;19925;-75
2022/10/14 16:07:27;;;;;;;27.77;16.88;;;13.40;99.90;;;;;;9193171;19;20344;-75
2022/10/14 16:10:33;;;;;;;23.17;13.88;;;12.90;99.90;;;;;;9193910;19;19921;-75
2022/10/14 16:13:37;;;;;;;23.50;14.20;;;12.90;99.90;;;;;;9191418;19;19933;-75
2022/10/14 16:16:44;;;;;;;25.15;14.35;;;13.80;99.90;;;;;;9191873;19;19925;-75